sensor_id;sensor_type;location;lat;lon;timestamp;P1;durP1;ratioP1;P2;durP2;ratioP2
55112;SDS011;41006;50.920;3.456;2023-04-03T00:00:08;60.00;;;55.03;;
55112;SDS011;41006;50.920;3.456;2023-04-03T00:00:42;58.70;;;53.70;;
55112;SDS011;41006;50.920;3.456;2023-04-03T00:01:15;59.65;;;54.70;;
55112;SDS011;41006;50.920;3.456;2023-04-03T00:01:46;58.53;;;53.92;;
55112;SDS011;41006;50.920;3.456;2023-04-03T00:02:19;59.55;;;54.70;;
55112;SDS011;41006;50.920;3.456;2023-04-03T00:02:49;58.42;;;53.63;;
55112;SDS011;41006;50.920;3.456;2023-04-03T00:03:19;59.20;;;54.30;;
55112;SDS011;41006;50.920;3.456;2023-04-03T00:03:50;58.63;;;53.92;;
55112;SDS011;41006;50.920;3.456;2023-04-03T00:04:21;58.88;;;53.97;;
55112;SDS011;41006;50.920;3.456;2023-04-03T00:04:54;58.80;;;53.72;;
55112;SDS011;41006;50.920;3.456;2023-04-03T00:05:26;57.50;;;52.78;;
55112;SDS011;41006;50.920;3.456;2023-04-03T00:05:57;57.58;;;52.70;;
55112;SDS011;41006;50.920;3.456;2023-04-03T00:06:27;58.00;;;53.05;;
55112;SDS011;41006;50.920;3.456;2023-04-03T00:06:57;57.92;;;53.20;;
55112;SDS011;41006;50.920;3.456;2023-04-03T00:07:30;57.67;;;52.55;;
55112;SDS011;41006;50.920;3.456;2023-04-03T00:08:00;58.25;;;53.15;;
55112;SDS011;41006;50.920;3.456;2023-04-03T00:08:35;57.72;;;52.92;;
55112;SDS011;41006;50.920;3.456;2023-04-03T00:09:07;57.53;;;52.78;;
55112;SDS011;41006;50.920;3.456;2023-04-03T00:09:40;59.63;;;54.47;;
55112;SDS011;41006;50.920;3.456;2023-04-03T00:10:12;56.90;;;52.53;;
55112;SDS011;41006;50.920;3.456;2023-04-03T00:10:43;58.20;;;53.40;;
55112;SDS011;41006;50.920;3.456;2023-04-03T00:11:14;59.63;;;54.63;;
55112;SDS011;41006;50.920;3.456;2023-04-03T00:11:47;57.55;;;53.05;;
55112;SDS011;41006;50.920;3.456;2023-04-03T00:12:17;56.22;;;51.50;;
55112;SDS011;41006;50.920;3.456;2023-04-03T00:12:50;56.95;;;52.17;;
55112;SDS011;41006;50.920;3.456;2023-04-03T00:13:20;58.28;;;53.25;;
55112;SDS011;41006;50.920;3.456;2023-04-03T00:13:50;57.53;;;52.55;;
55112;SDS011;41006;50.920;3.456;2023-04-03T00:14:21;59.22;;;54.10;;
55112;SDS011;41006;50.920;3.456;2023-04-03T00:14:53;58.15;;;53.47;;
55112;SDS011;41006;50.920;3.456;2023-04-03T00:15:26;60.67;;;55.22;;
55112;SDS011;41006;50.920;3.456;2023-04-03T00:15:58;58.20;;;53.35;;
55112;SDS011;41006;50.920;3.456;2023-04-03T00:16:29;58.60;;;53.83;;
55112;SDS011;41006;50.920;3.456;2023-04-03T00:17:01;58.55;;;53.63;;
55112;SDS011;41006;50.920;3.456;2023-04-03T00:17:31;59.10;;;54.38;;
55112;SDS011;41006;50.920;3.456;2023-04-03T00:18:02;58.35;;;53.45;;
55112;SDS011;41006;50.920;3.456;2023-04-03T00:18:35;58.97;;;54.17;;
55112;SDS011;41006;50.920;3.456;2023-04-03T00:19:05;58.53;;;53.80;;
55112;SDS011;41006;50.920;3.456;2023-04-03T00:19:38;60.80;;;55.45;;
55112;SDS011;41006;50.920;3.456;2023-04-03T00:20:08;56.65;;;52.08;;
55112;SDS011;41006;50.920;3.456;2023-04-03T00:20:41;59.80;;;54.67;;
55112;SDS011;41006;50.920;3.456;2023-04-03T00:21:12;57.60;;;52.90;;
55112;SDS011;41006;50.920;3.456;2023-04-03T00:21:43;58.05;;;53.47;;
55112;SDS011;41006;50.920;3.456;2023-04-03T00:22:16;57.15;;;52.38;;
55112;SDS011;41006;50.920;3.456;2023-04-03T00:22:49;56.30;;;51.70;;
55112;SDS011;41006;50.920;3.456;2023-04-03T00:23:22;57.08;;;52.40;;
55112;SDS011;41006;50.920;3.456;2023-04-03T00:23:53;57.97;;;53.22;;
55112;SDS011;41006;50.920;3.456;2023-04-03T00:24:23;58.15;;;53.83;;
55112;SDS011;41006;50.920;3.456;2023-04-03T00:24:54;59.42;;;54.63;;
55112;SDS011;41006;50.920;3.456;2023-04-03T00:25:27;59.00;;;54.13;;
55112;SDS011;41006;50.920;3.456;2023-04-03T00:25:57;58.60;;;53.78;;
55112;SDS011;41006;50.920;3.456;2023-04-03T00:26:27;58.10;;;53.17;;
55112;SDS011;41006;50.920;3.456;2023-04-03T00:26:58;57.85;;;53.40;;
55112;SDS011;41006;50.920;3.456;2023-04-03T00:27:28;60.42;;;55.45;;
55112;SDS011;41006;50.920;3.456;2023-04-03T00:28:01;57.92;;;53.42;;
55112;SDS011;41006;50.920;3.456;2023-04-03T00:28:31;58.28;;;53.38;;
55112;SDS011;41006;50.920;3.456;2023-04-03T00:29:01;58.65;;;54.10;;
55112;SDS011;41006;50.920;3.456;2023-04-03T00:29:34;59.00;;;54.38;;
55112;SDS011;41006;50.920;3.456;2023-04-03T00:30:05;58.15;;;53.60;;
55112;SDS011;41006;50.920;3.456;2023-04-03T00:30:35;58.42;;;53.80;;
55112;SDS011;41006;50.920;3.456;2023-04-03T00:31:06;58.30;;;53.50;;
55112;SDS011;41006;50.920;3.456;2023-04-03T00:31:36;59.90;;;55.30;;
55112;SDS011;41006;50.920;3.456;2023-04-03T00:32:06;59.67;;;54.72;;
55112;SDS011;41006;50.920;3.456;2023-04-03T00:32:39;62.00;;;56.95;;
55112;SDS011;41006;50.920;3.456;2023-04-03T00:33:12;59.60;;;54.75;;
55112;SDS011;41006;50.920;3.456;2023-04-03T00:33:43;61.38;;;56.45;;
55112;SDS011;41006;50.920;3.456;2023-04-03T00:34:13;60.97;;;55.92;;
55112;SDS011;41006;50.920;3.456;2023-04-03T00:34:43;60.03;;;55.50;;
55112;SDS011;41006;50.920;3.456;2023-04-03T00:35:13;59.10;;;54.58;;
55112;SDS011;41006;50.920;3.456;2023-04-03T00:35:45;59.35;;;54.72;;
55112;SDS011;41006;50.920;3.456;2023-04-03T00:36:18;59.83;;;54.72;;
55112;SDS011;41006;50.920;3.456;2023-04-03T00:36:53;59.95;;;55.25;;
55112;SDS011;41006;50.920;3.456;2023-04-03T00:37:26;59.17;;;54.25;;
55112;SDS011;41006;50.920;3.456;2023-04-03T00:37:56;59.28;;;54.58;;
55112;SDS011;41006;50.920;3.456;2023-04-03T00:38:27;61.03;;;55.90;;
55112;SDS011;41006;50.920;3.456;2023-04-03T00:38:57;60.35;;;55.38;;
55112;SDS011;41006;50.920;3.456;2023-04-03T00:39:27;58.22;;;53.53;;
55112;SDS011;41006;50.920;3.456;2023-04-03T00:39:58;60.80;;;55.70;;
55112;SDS011;41006;50.920;3.456;2023-04-03T00:40:32;60.42;;;55.42;;
55112;SDS011;41006;50.920;3.456;2023-04-03T00:41:03;58.97;;;53.83;;
55112;SDS011;41006;50.920;3.456;2023-04-03T00:41:33;59.70;;;54.83;;
55112;SDS011;41006;50.920;3.456;2023-04-03T00:42:03;58.58;;;53.80;;
55112;SDS011;41006;50.920;3.456;2023-04-03T00:42:33;57.83;;;53.08;;
55112;SDS011;41006;50.920;3.456;2023-04-03T00:43:14;58.15;;;53.47;;
55112;SDS011;41006;50.920;3.456;2023-04-03T00:43:45;57.55;;;52.67;;
55112;SDS011;41006;50.920;3.456;2023-04-03T00:44:19;59.15;;;54.10;;
55112;SDS011;41006;50.920;3.456;2023-04-03T00:45:35;58.22;;;53.15;;
55112;SDS011;41006;50.920;3.456;2023-04-03T00:46:06;58.58;;;53.35;;
55112;SDS011;41006;50.920;3.456;2023-04-03T00:46:36;56.50;;;51.72;;
55112;SDS011;41006;50.920;3.456;2023-04-03T00:47:07;56.08;;;51.60;;
55112;SDS011;41006;50.920;3.456;2023-04-03T00:47:38;55.13;;;50.33;;
55112;SDS011;41006;50.920;3.456;2023-04-03T00:48:14;54.85;;;50.42;;
55112;SDS011;41006;50.920;3.456;2023-04-03T00:48:46;56.15;;;51.42;;
55112;SDS011;41006;50.920;3.456;2023-04-03T00:49:19;56.33;;;51.78;;
55112;SDS011;41006;50.920;3.456;2023-04-03T00:49:54;54.88;;;50.00;;
55112;SDS011;41006;50.920;3.456;2023-04-03T00:50:24;56.17;;;51.38;;
55112;SDS011;41006;50.920;3.456;2023-04-03T00:50:57;55.08;;;50.63;;
55112;SDS011;41006;50.920;3.456;2023-04-03T00:51:28;56.63;;;51.42;;
55112;SDS011;41006;50.920;3.456;2023-04-03T00:51:58;54.55;;;49.95;;
55112;SDS011;41006;50.920;3.456;2023-04-03T00:52:29;57.35;;;52.25;;
55112;SDS011;41006;50.920;3.456;2023-04-03T00:53:00;55.22;;;50.42;;
55112;SDS011;41006;50.920;3.456;2023-04-03T00:53:34;57.22;;;52.47;;
55112;SDS011;41006;50.920;3.456;2023-04-03T00:54:07;55.78;;;51.28;;
55112;SDS011;41006;50.920;3.456;2023-04-03T00:54:38;56.58;;;51.78;;
55112;SDS011;41006;50.920;3.456;2023-04-03T00:55:13;55.00;;;50.55;;
55112;SDS011;41006;50.920;3.456;2023-04-03T00:55:44;55.30;;;50.55;;
55112;SDS011;41006;50.920;3.456;2023-04-03T00:56:16;54.38;;;50.22;;
55112;SDS011;41006;50.920;3.456;2023-04-03T00:56:47;54.63;;;50.13;;
55112;SDS011;41006;50.920;3.456;2023-04-03T00:57:23;53.53;;;49.22;;
55112;SDS011;41006;50.920;3.456;2023-04-03T00:57:53;52.58;;;48.50;;
55112;SDS011;41006;50.920;3.456;2023-04-03T00:58:49;53.45;;;49.15;;
55112;SDS011;41006;50.920;3.456;2023-04-03T00:59:20;55.15;;;50.75;;
55112;SDS011;41006;50.920;3.456;2023-04-03T00:59:57;55.05;;;50.45;;
55112;SDS011;41006;50.920;3.456;2023-04-03T01:00:32;55.00;;;50.47;;
55112;SDS011;41006;50.920;3.456;2023-04-03T01:01:03;54.40;;;49.88;;
55112;SDS011;41006;50.920;3.456;2023-04-03T01:01:41;53.47;;;49.45;;
55112;SDS011;41006;50.920;3.456;2023-04-03T01:02:11;54.22;;;49.45;;
55112;SDS011;41006;50.920;3.456;2023-04-03T01:02:44;55.10;;;50.67;;
55112;SDS011;41006;50.920;3.456;2023-04-03T01:03:15;54.47;;;50.13;;
55112;SDS011;41006;50.920;3.456;2023-04-03T01:03:48;53.55;;;49.20;;
55112;SDS011;41006;50.920;3.456;2023-04-03T01:04:31;52.60;;;48.58;;
55112;SDS011;41006;50.920;3.456;2023-04-03T01:05:02;54.50;;;49.95;;
55112;SDS011;41006;50.920;3.456;2023-04-03T01:05:33;53.30;;;49.13;;
55112;SDS011;41006;50.920;3.456;2023-04-03T01:06:03;53.35;;;48.90;;
55112;SDS011;41006;50.920;3.456;2023-04-03T01:06:36;54.25;;;49.85;;
55112;SDS011;41006;50.920;3.456;2023-04-03T01:07:37;53.95;;;49.47;;
55112;SDS011;41006;50.920;3.456;2023-04-03T01:08:08;52.15;;;48.05;;
55112;SDS011;41006;50.920;3.456;2023-04-03T01:08:38;53.85;;;49.63;;
55112;SDS011;41006;50.920;3.456;2023-04-03T01:09:08;55.35;;;50.80;;
55112;SDS011;41006;50.920;3.456;2023-04-03T01:09:39;54.85;;;50.22;;
55112;SDS011;41006;50.920;3.456;2023-04-03T01:10:11;55.35;;;50.85;;
55112;SDS011;41006;50.920;3.456;2023-04-03T01:10:43;56.42;;;51.55;;
55112;SDS011;41006;50.920;3.456;2023-04-03T01:11:14;54.47;;;50.05;;
55112;SDS011;41006;50.920;3.456;2023-04-03T01:11:45;55.55;;;51.25;;
55112;SDS011;41006;50.920;3.456;2023-04-03T01:12:49;55.83;;;51.50;;
55112;SDS011;41006;50.920;3.456;2023-04-03T01:13:24;53.10;;;49.00;;
55112;SDS011;41006;50.920;3.456;2023-04-03T01:13:58;54.10;;;49.90;;
55112;SDS011;41006;50.920;3.456;2023-04-03T01:14:28;54.45;;;50.33;;
55112;SDS011;41006;50.920;3.456;2023-04-03T01:14:59;53.38;;;49.33;;
55112;SDS011;41006;50.920;3.456;2023-04-03T01:15:32;55.28;;;50.88;;
55112;SDS011;41006;50.920;3.456;2023-04-03T01:16:06;55.70;;;50.90;;
55112;SDS011;41006;50.920;3.456;2023-04-03T01:16:36;56.08;;;51.58;;
55112;SDS011;41006;50.920;3.456;2023-04-03T01:17:56;55.28;;;51.10;;
55112;SDS011;41006;50.920;3.456;2023-04-03T01:18:26;55.42;;;51.05;;
55112;SDS011;41006;50.920;3.456;2023-04-03T01:18:57;54.67;;;50.63;;
55112;SDS011;41006;50.920;3.456;2023-04-03T01:19:31;54.38;;;50.13;;
55112;SDS011;41006;50.920;3.456;2023-04-03T01:22:19;54.42;;;50.13;;
55112;SDS011;41006;50.920;3.456;2023-04-03T01:23:44;54.78;;;50.65;;
55112;SDS011;41006;50.920;3.456;2023-04-03T01:24:28;53.75;;;49.55;;
55112;SDS011;41006;50.920;3.456;2023-04-03T01:25:00;52.78;;;49.08;;
55112;SDS011;41006;50.920;3.456;2023-04-03T01:25:33;55.55;;;51.22;;
55112;SDS011;41006;50.920;3.456;2023-04-03T01:26:04;55.63;;;51.10;;
55112;SDS011;41006;50.920;3.456;2023-04-03T01:26:38;53.85;;;49.70;;
55112;SDS011;41006;50.920;3.456;2023-04-03T01:27:09;52.60;;;48.47;;
55112;SDS011;41006;50.920;3.456;2023-04-03T01:27:40;54.58;;;50.13;;
55112;SDS011;41006;50.920;3.456;2023-04-03T01:28:12;52.85;;;48.72;;
55112;SDS011;41006;50.920;3.456;2023-04-03T01:28:43;53.97;;;49.78;;
55112;SDS011;41006;50.920;3.456;2023-04-03T01:29:15;53.67;;;49.25;;
55112;SDS011;41006;50.920;3.456;2023-04-03T01:29:46;53.80;;;49.45;;
55112;SDS011;41006;50.920;3.456;2023-04-03T01:30:17;54.28;;;50.13;;
55112;SDS011;41006;50.920;3.456;2023-04-03T01:31:52;52.40;;;48.42;;
55112;SDS011;41006;50.920;3.456;2023-04-03T01:32:25;52.92;;;48.67;;
55112;SDS011;41006;50.920;3.456;2023-04-03T01:32:58;51.47;;;47.63;;
55112;SDS011;41006;50.920;3.456;2023-04-03T01:33:30;51.42;;;47.53;;
55112;SDS011;41006;50.920;3.456;2023-04-03T01:34:01;51.42;;;47.35;;
55112;SDS011;41006;50.920;3.456;2023-04-03T01:34:32;52.00;;;47.58;;
55112;SDS011;41006;50.920;3.456;2023-04-03T01:35:06;51.13;;;47.13;;
55112;SDS011;41006;50.920;3.456;2023-04-03T01:35:37;51.58;;;47.35;;
55112;SDS011;41006;50.920;3.456;2023-04-03T01:36:07;51.25;;;47.20;;
55112;SDS011;41006;50.920;3.456;2023-04-03T01:36:38;50.05;;;46.17;;
55112;SDS011;41006;50.920;3.456;2023-04-03T01:37:08;49.63;;;45.92;;
55112;SDS011;41006;50.920;3.456;2023-04-03T01:37:38;49.58;;;45.88;;
55112;SDS011;41006;50.920;3.456;2023-04-03T01:38:11;51.03;;;47.03;;
55112;SDS011;41006;50.920;3.456;2023-04-03T01:38:41;50.03;;;46.25;;
55112;SDS011;41006;50.920;3.456;2023-04-03T01:39:16;51.33;;;47.03;;
55112;SDS011;41006;50.920;3.456;2023-04-03T01:39:46;52.40;;;47.90;;
55112;SDS011;41006;50.920;3.456;2023-04-03T01:40:16;53.10;;;48.90;;
55112;SDS011;41006;50.920;3.456;2023-04-03T01:40:47;50.50;;;46.72;;
55112;SDS011;41006;50.920;3.456;2023-04-03T01:41:19;51.83;;;47.55;;
55112;SDS011;41006;50.920;3.456;2023-04-03T01:41:51;50.45;;;46.65;;
55112;SDS011;41006;50.920;3.456;2023-04-03T01:42:21;50.97;;;46.95;;
55112;SDS011;41006;50.920;3.456;2023-04-03T01:42:53;51.20;;;47.17;;
55112;SDS011;41006;50.920;3.456;2023-04-03T01:43:24;51.25;;;47.17;;
55112;SDS011;41006;50.920;3.456;2023-04-03T01:43:54;49.47;;;45.38;;
55112;SDS011;41006;50.920;3.456;2023-04-03T01:44:24;51.22;;;47.35;;
55112;SDS011;41006;50.920;3.456;2023-04-03T01:44:59;51.00;;;47.00;;
55112;SDS011;41006;50.920;3.456;2023-04-03T01:45:30;50.53;;;46.38;;
55112;SDS011;41006;50.920;3.456;2023-04-03T01:46:00;52.08;;;47.85;;
55112;SDS011;41006;50.920;3.456;2023-04-03T01:46:31;50.00;;;46.15;;
55112;SDS011;41006;50.920;3.456;2023-04-03T01:47:03;52.05;;;47.70;;
55112;SDS011;41006;50.920;3.456;2023-04-03T01:47:37;50.28;;;46.25;;
55112;SDS011;41006;50.920;3.456;2023-04-03T01:48:12;49.33;;;45.40;;
55112;SDS011;41006;50.920;3.456;2023-04-03T01:48:43;49.22;;;45.13;;
55112;SDS011;41006;50.920;3.456;2023-04-03T01:49:16;49.63;;;45.72;;
55112;SDS011;41006;50.920;3.456;2023-04-03T01:49:46;48.95;;;45.22;;
55112;SDS011;41006;50.920;3.456;2023-04-03T01:50:16;49.03;;;44.85;;
55112;SDS011;41006;50.920;3.456;2023-04-03T01:50:46;48.30;;;44.28;;
55112;SDS011;41006;50.920;3.456;2023-04-03T01:51:17;47.50;;;44.05;;
55112;SDS011;41006;50.920;3.456;2023-04-03T01:51:47;48.05;;;44.20;;
55112;SDS011;41006;50.920;3.456;2023-04-03T01:52:17;48.30;;;44.58;;
55112;SDS011;41006;50.920;3.456;2023-04-03T01:52:49;48.47;;;44.83;;
55112;SDS011;41006;50.920;3.456;2023-04-03T01:53:24;46.53;;;43.15;;
55112;SDS011;41006;50.920;3.456;2023-04-03T01:53:57;48.28;;;44.60;;
55112;SDS011;41006;50.920;3.456;2023-04-03T01:54:27;48.50;;;44.90;;
55112;SDS011;41006;50.920;3.456;2023-04-03T01:55:00;48.10;;;44.50;;
55112;SDS011;41006;50.920;3.456;2023-04-03T01:55:30;48.35;;;44.88;;
55112;SDS011;41006;50.920;3.456;2023-04-03T01:56:00;49.30;;;45.17;;
55112;SDS011;41006;50.920;3.456;2023-04-03T01:56:31;47.83;;;44.15;;
55112;SDS011;41006;50.920;3.456;2023-04-03T01:57:01;46.90;;;43.45;;
55112;SDS011;41006;50.920;3.456;2023-04-03T01:57:34;47.42;;;43.60;;
55112;SDS011;41006;50.920;3.456;2023-04-03T01:58:04;46.35;;;42.95;;
55112;SDS011;41006;50.920;3.456;2023-04-03T01:58:34;46.35;;;42.80;;
55112;SDS011;41006;50.920;3.456;2023-04-03T01:59:05;44.40;;;41.17;;
55112;SDS011;41006;50.920;3.456;2023-04-03T01:59:35;46.03;;;42.33;;
55112;SDS011;41006;50.920;3.456;2023-04-03T02:00:06;45.33;;;41.83;;
55112;SDS011;41006;50.920;3.456;2023-04-03T02:00:37;45.55;;;41.90;;
55112;SDS011;41006;50.920;3.456;2023-04-03T02:01:07;44.88;;;41.60;;
55112;SDS011;41006;50.920;3.456;2023-04-03T02:01:38;45.20;;;41.75;;
55112;SDS011;41006;50.920;3.456;2023-04-03T02:02:08;44.30;;;41.00;;
55112;SDS011;41006;50.920;3.456;2023-04-03T02:02:40;44.78;;;41.47;;
55112;SDS011;41006;50.920;3.456;2023-04-03T02:03:13;43.97;;;40.85;;
55112;SDS011;41006;50.920;3.456;2023-04-03T02:03:43;44.05;;;40.70;;
55112;SDS011;41006;50.920;3.456;2023-04-03T02:04:16;44.50;;;41.30;;
55112;SDS011;41006;50.920;3.456;2023-04-03T02:04:49;44.35;;;40.78;;
55112;SDS011;41006;50.920;3.456;2023-04-03T02:05:19;42.80;;;39.47;;
55112;SDS011;41006;50.920;3.456;2023-04-03T02:05:50;43.20;;;40.00;;
55112;SDS011;41006;50.920;3.456;2023-04-03T02:06:20;43.72;;;40.53;;
55112;SDS011;41006;50.920;3.456;2023-04-03T02:06:50;43.85;;;40.50;;
55112;SDS011;41006;50.920;3.456;2023-04-03T02:07:23;43.25;;;40.13;;
55112;SDS011;41006;50.920;3.456;2023-04-03T02:07:55;44.63;;;40.83;;
55112;SDS011;41006;50.920;3.456;2023-04-03T02:08:26;43.58;;;40.35;;
55112;SDS011;41006;50.920;3.456;2023-04-03T02:08:56;44.95;;;41.58;;
55112;SDS011;41006;50.920;3.456;2023-04-03T02:09:26;44.53;;;40.97;;
55112;SDS011;41006;50.920;3.456;2023-04-03T02:09:57;45.13;;;41.80;;
55112;SDS011;41006;50.920;3.456;2023-04-03T02:10:29;46.08;;;42.65;;
55112;SDS011;41006;50.920;3.456;2023-04-03T02:11:00;44.92;;;41.45;;
55112;SDS011;41006;50.920;3.456;2023-04-03T02:11:32;46.92;;;43.05;;
55112;SDS011;41006;50.920;3.456;2023-04-03T02:12:05;44.83;;;41.63;;
55112;SDS011;41006;50.920;3.456;2023-04-03T02:12:38;45.50;;;41.78;;
55112;SDS011;41006;50.920;3.456;2023-04-03T02:13:08;44.53;;;41.03;;
55112;SDS011;41006;50.920;3.456;2023-04-03T02:13:38;43.85;;;40.78;;
55112;SDS011;41006;50.920;3.456;2023-04-03T02:14:11;45.53;;;42.17;;
55112;SDS011;41006;50.920;3.456;2023-04-03T02:14:44;44.08;;;40.92;;
55112;SDS011;41006;50.920;3.456;2023-04-03T02:15:15;47.72;;;44.10;;
55112;SDS011;41006;50.920;3.456;2023-04-03T02:15:45;44.33;;;41.15;;
55112;SDS011;41006;50.920;3.456;2023-04-03T02:16:15;45.92;;;42.60;;
55112;SDS011;41006;50.920;3.456;2023-04-03T02:16:46;45.13;;;41.72;;
55112;SDS011;41006;50.920;3.456;2023-04-03T02:17:16;44.60;;;41.50;;
55112;SDS011;41006;50.920;3.456;2023-04-03T02:17:48;45.75;;;41.85;;
55112;SDS011;41006;50.920;3.456;2023-04-03T02:18:19;44.75;;;41.53;;
55112;SDS011;41006;50.920;3.456;2023-04-03T02:18:49;44.78;;;41.38;;
55112;SDS011;41006;50.920;3.456;2023-04-03T02:19:22;44.55;;;41.05;;
55112;SDS011;41006;50.920;3.456;2023-04-03T02:19:55;43.90;;;40.80;;
55112;SDS011;41006;50.920;3.456;2023-04-03T02:20:25;44.05;;;40.83;;
55112;SDS011;41006;50.920;3.456;2023-04-03T02:20:59;44.85;;;41.22;;
55112;SDS011;41006;50.920;3.456;2023-04-03T02:21:31;44.67;;;41.15;;
55112;SDS011;41006;50.920;3.456;2023-04-03T02:22:07;42.20;;;39.30;;
55112;SDS011;41006;50.920;3.456;2023-04-03T02:22:37;43.47;;;40.35;;
55112;SDS011;41006;50.920;3.456;2023-04-03T02:23:07;42.92;;;39.97;;
55112;SDS011;41006;50.920;3.456;2023-04-03T02:23:38;43.10;;;39.70;;
55112;SDS011;41006;50.920;3.456;2023-04-03T02:24:08;42.50;;;39.35;;
55112;SDS011;41006;50.920;3.456;2023-04-03T02:24:38;42.30;;;39.30;;
55112;SDS011;41006;50.920;3.456;2023-04-03T02:25:10;43.20;;;40.10;;
55112;SDS011;41006;50.920;3.456;2023-04-03T02:25:43;42.72;;;39.47;;
55112;SDS011;41006;50.920;3.456;2023-04-03T02:26:16;44.00;;;40.83;;
55112;SDS011;41006;50.920;3.456;2023-04-03T02:26:49;42.35;;;39.65;;
55112;SDS011;41006;50.920;3.456;2023-04-03T02:27:19;42.85;;;39.92;;
55112;SDS011;41006;50.920;3.456;2023-04-03T02:27:49;42.00;;;38.80;;
55112;SDS011;41006;50.920;3.456;2023-04-03T02:28:20;42.53;;;39.30;;
55112;SDS011;41006;50.920;3.456;2023-04-03T02:28:50;43.20;;;40.17;;
55112;SDS011;41006;50.920;3.456;2023-04-03T02:29:22;43.15;;;39.90;;
55112;SDS011;41006;50.920;3.456;2023-04-03T02:29:53;43.25;;;39.92;;
55112;SDS011;41006;50.920;3.456;2023-04-03T02:30:23;41.85;;;38.85;;
55112;SDS011;41006;50.920;3.456;2023-04-03T02:30:56;41.10;;;38.30;;
55112;SDS011;41006;50.920;3.456;2023-04-03T02:31:26;41.33;;;38.30;;
55112;SDS011;41006;50.920;3.456;2023-04-03T02:31:56;42.45;;;39.53;;
55112;SDS011;41006;50.920;3.456;2023-04-03T02:32:27;43.33;;;40.10;;
55112;SDS011;41006;50.920;3.456;2023-04-03T02:32:57;43.63;;;40.38;;
55112;SDS011;41006;50.920;3.456;2023-04-03T02:33:30;41.47;;;38.38;;
55112;SDS011;41006;50.920;3.456;2023-04-03T02:34:00;42.40;;;39.42;;
55112;SDS011;41006;50.920;3.456;2023-04-03T02:34:31;42.20;;;39.25;;
55112;SDS011;41006;50.920;3.456;2023-04-03T02:35:01;41.17;;;38.03;;
55112;SDS011;41006;50.920;3.456;2023-04-03T02:35:31;41.97;;;38.63;;
55112;SDS011;41006;50.920;3.456;2023-04-03T02:36:02;41.78;;;38.88;;
55112;SDS011;41006;50.920;3.456;2023-04-03T02:36:33;42.30;;;39.30;;
55112;SDS011;41006;50.920;3.456;2023-04-03T02:37:03;42.60;;;39.67;;
55112;SDS011;41006;50.920;3.456;2023-04-03T02:37:35;43.72;;;40.53;;
55112;SDS011;41006;50.920;3.456;2023-04-03T02:38:06;42.22;;;39.35;;
55112;SDS011;41006;50.920;3.456;2023-04-03T02:38:36;42.45;;;39.58;;
55112;SDS011;41006;50.920;3.456;2023-04-03T02:39:06;41.88;;;38.70;;
55112;SDS011;41006;50.920;3.456;2023-04-03T02:39:37;41.80;;;38.55;;
55112;SDS011;41006;50.920;3.456;2023-04-03T02:40:07;40.58;;;37.88;;
55112;SDS011;41006;50.920;3.456;2023-04-03T02:40:37;40.72;;;37.67;;
55112;SDS011;41006;50.920;3.456;2023-04-03T02:41:09;40.53;;;37.55;;
55112;SDS011;41006;50.920;3.456;2023-04-03T02:41:41;39.63;;;36.88;;
55112;SDS011;41006;50.920;3.456;2023-04-03T02:42:12;39.83;;;36.92;;
55112;SDS011;41006;50.920;3.456;2023-04-03T02:42:42;39.35;;;36.50;;
55112;SDS011;41006;50.920;3.456;2023-04-03T02:43:14;40.85;;;38.08;;
55112;SDS011;41006;50.920;3.456;2023-04-03T02:43:45;40.65;;;37.75;;
55112;SDS011;41006;50.920;3.456;2023-04-03T02:44:15;41.60;;;38.45;;
55112;SDS011;41006;50.920;3.456;2023-04-03T02:44:48;40.75;;;37.72;;
55112;SDS011;41006;50.920;3.456;2023-04-03T02:45:18;40.03;;;37.30;;
55112;SDS011;41006;50.920;3.456;2023-04-03T02:45:51;39.67;;;37.00;;
55112;SDS011;41006;50.920;3.456;2023-04-03T02:46:24;41.58;;;38.60;;
55112;SDS011;41006;50.920;3.456;2023-04-03T02:46:57;39.63;;;37.03;;
55112;SDS011;41006;50.920;3.456;2023-04-03T02:47:29;41.13;;;38.13;;
55112;SDS011;41006;50.920;3.456;2023-04-03T02:48:02;40.40;;;37.42;;
55112;SDS011;41006;50.920;3.456;2023-04-03T02:48:35;40.97;;;38.08;;
55112;SDS011;41006;50.920;3.456;2023-04-03T02:49:06;39.80;;;37.03;;
55112;SDS011;41006;50.920;3.456;2023-04-03T02:49:38;40.03;;;37.03;;
55112;SDS011;41006;50.920;3.456;2023-04-03T02:50:08;40.13;;;37.20;;
55112;SDS011;41006;50.920;3.456;2023-04-03T02:50:41;39.70;;;36.78;;
55112;SDS011;41006;50.920;3.456;2023-04-03T02:51:17;40.25;;;37.70;;
55112;SDS011;41006;50.920;3.456;2023-04-03T02:51:47;41.15;;;38.25;;
55112;SDS011;41006;50.920;3.456;2023-04-03T02:52:18;39.90;;;37.15;;
55112;SDS011;41006;50.920;3.456;2023-04-03T02:52:53;39.58;;;36.88;;
55112;SDS011;41006;50.920;3.456;2023-04-03T02:53:23;38.50;;;35.65;;
55112;SDS011;41006;50.920;3.456;2023-04-03T02:53:53;38.28;;;35.65;;
55112;SDS011;41006;50.920;3.456;2023-04-03T02:54:26;39.03;;;36.22;;
55112;SDS011;41006;50.920;3.456;2023-04-03T02:54:58;38.70;;;36.17;;
55112;SDS011;41006;50.920;3.456;2023-04-03T02:55:28;38.60;;;36.10;;
55112;SDS011;41006;50.920;3.456;2023-04-03T02:56:01;39.20;;;36.60;;
55112;SDS011;41006;50.920;3.456;2023-04-03T02:56:31;39.47;;;36.88;;
55112;SDS011;41006;50.920;3.456;2023-04-03T02:57:06;40.40;;;37.50;;
55112;SDS011;41006;50.920;3.456;2023-04-03T02:57:38;39.17;;;36.67;;
55112;SDS011;41006;50.920;3.456;2023-04-03T02:58:11;39.53;;;36.80;;
55112;SDS011;41006;50.920;3.456;2023-04-03T02:58:44;38.65;;;36.10;;
55112;SDS011;41006;50.920;3.456;2023-04-03T02:59:14;40.35;;;37.25;;
55112;SDS011;41006;50.920;3.456;2023-04-03T02:59:47;38.35;;;35.95;;
55112;SDS011;41006;50.920;3.456;2023-04-03T03:00:17;39.88;;;37.03;;
55112;SDS011;41006;50.920;3.456;2023-04-03T03:00:50;39.83;;;36.92;;
55112;SDS011;41006;50.920;3.456;2023-04-03T03:01:23;39.05;;;36.63;;
55112;SDS011;41006;50.920;3.456;2023-04-03T03:01:53;39.40;;;36.35;;
55112;SDS011;41006;50.920;3.456;2023-04-03T03:02:26;40.40;;;37.75;;
55112;SDS011;41006;50.920;3.456;2023-04-03T03:02:56;39.28;;;36.30;;
55112;SDS011;41006;50.920;3.456;2023-04-03T03:03:32;38.97;;;36.20;;
55112;SDS011;41006;50.920;3.456;2023-04-03T03:04:02;38.47;;;36.08;;
55112;SDS011;41006;50.920;3.456;2023-04-03T03:04:32;38.63;;;35.88;;
55112;SDS011;41006;50.920;3.456;2023-04-03T03:05:03;37.65;;;35.13;;
55112;SDS011;41006;50.920;3.456;2023-04-03T03:05:33;38.58;;;35.92;;
55112;SDS011;41006;50.920;3.456;2023-04-03T03:06:07;40.63;;;37.47;;
55112;SDS011;41006;50.920;3.456;2023-04-03T03:06:38;39.25;;;36.50;;
55112;SDS011;41006;50.920;3.456;2023-04-03T03:07:08;41.08;;;38.00;;
55112;SDS011;41006;50.920;3.456;2023-04-03T03:07:38;40.17;;;37.33;;
55112;SDS011;41006;50.920;3.456;2023-04-03T03:08:10;39.50;;;36.80;;
55112;SDS011;41006;50.920;3.456;2023-04-03T03:08:41;38.78;;;35.83;;
55112;SDS011;41006;50.920;3.456;2023-04-03T03:09:11;38.53;;;35.85;;
55112;SDS011;41006;50.920;3.456;2023-04-03T03:09:44;39.13;;;36.50;;
55112;SDS011;41006;50.920;3.456;2023-04-03T03:10:15;38.53;;;35.92;;
55112;SDS011;41006;50.920;3.456;2023-04-03T03:10:45;38.78;;;35.78;;
55112;SDS011;41006;50.920;3.456;2023-04-03T03:11:18;38.75;;;35.92;;
55112;SDS011;41006;50.920;3.456;2023-04-03T03:11:48;38.08;;;35.28;;